createdAt,value
2017-12-09T00:01:17.820Z,76.70
2017-12-09T00:03:45.519Z,76.50
2017-12-09T00:06:13.125Z,77.00
2017-12-09T00:08:41.520Z,77.20
2017-12-09T00:11:09.229Z,77.10
2017-12-09T00:13:36.860Z,76.90
2017-12-09T00:16:04.497Z,76.90
2017-12-09T00:18:32.261Z,77.20
2017-12-09T00:20:59.939Z,77.20
2017-12-09T00:23:28.361Z,77.40
2017-12-09T00:25:56.005Z,77.40
2017-12-09T00:28:23.643Z,77.10
2017-12-09T00:30:51.255Z,77.00
2017-12-09T00:33:18.930Z,77.60
2017-12-09T00:35:46.543Z,77.40
2017-12-09T00:38:14.163Z,77.80
2017-12-09T00:40:42.597Z,77.60
2017-12-09T00:43:10.227Z,77.30
2017-12-09T00:45:37.871Z,77.20
2017-12-09T00:48:05.582Z,77.50
2017-12-09T00:50:33.202Z,77.70
2017-12-09T00:53:00.866Z,77.60
2017-12-09T00:55:29.363Z,78.60
2017-12-09T00:57:56.987Z,78.20
2017-12-09T01:00:25.428Z,78.80
2017-12-09T01:02:53.047Z,78.80
2017-12-09T01:05:20.735Z,78.60
2017-12-09T01:07:49.146Z,78.70
2017-12-09T01:10:16.813Z,78.70
2017-12-09T01:12:44.466Z,78.20
2017-12-09T01:15:23.910Z,77.90
2017-12-09T01:20:53.174Z,77.90
2017-12-09T01:23:20.818Z,78.60
2017-12-09T01:25:48.667Z,78.90
2017-12-09T01:28:16.302Z,79.70
2017-12-09T01:30:43.910Z,80.50
2017-12-09T01:33:11.591Z,80.50
2017-12-09T01:35:39.462Z,81.30
2017-12-09T01:38:07.124Z,81.70
2017-12-09T01:40:34.754Z,82.00
2017-12-09T01:43:02.370Z,82.20
2017-12-09T01:45:30.015Z,82.30
2017-12-09T01:47:57.752Z,82.90
2017-12-09T01:50:26.261Z,83.30
2017-12-09T01:52:53.889Z,83.40
2017-12-09T01:55:21.504Z,83.30
2017-12-09T01:57:49.267Z,83.60
2017-12-09T02:00:16.879Z,84.40
2017-12-09T02:02:45.231Z,85.00
2017-12-09T02:05:12.861Z,84.70
2017-12-09T02:07:40.502Z,84.70
2017-12-09T02:10:08.400Z,84.80
2017-12-09T02:12:37.037Z,86.20
2017-12-09T02:15:04.733Z,86.20
2017-12-09T02:17:32.354Z,86.70
2017-12-09T02:20:00.730Z,87.50
2017-12-09T02:22:28.602Z,87.40
2017-12-09T02:24:56.227Z,87.60
2017-12-09T02:27:24.645Z,87.60
2017-12-09T02:29:52.272Z,87.70
2017-12-09T02:32:19.906Z,87.70
2017-12-09T02:34:47.557Z,87.70
2017-12-09T02:37:15.191Z,88.00
2017-12-09T02:39:42.850Z,88.20
2017-12-09T02:42:10.466Z,88.90
2017-12-09T02:44:38.854Z,88.80
2017-12-09T02:47:06.521Z,88.70
2017-12-09T02:49:34.195Z,87.00
2017-12-09T02:52:01.877Z,85.20
2017-12-09T02:54:30.261Z,82.60
2017-12-09T02:56:57.933Z,82.60
2017-12-09T02:59:25.586Z,80.60
2017-12-09T03:01:53.214Z,79.10
2017-12-09T03:04:20.874Z,78.10
2017-12-09T03:06:48.711Z,76.00
2017-12-09T03:09:16.326Z,73.10
2017-12-09T03:11:43.987Z,72.20
2017-12-09T03:14:11.639Z,70.60
2017-12-09T03:16:39.420Z,69.20
2017-12-09T03:19:07.045Z,69.20
2017-12-09T03:21:34.653Z,68.10
2017-12-09T03:24:03.061Z,66.50
2017-12-09T03:26:30.679Z,66.50
2017-12-09T03:28:58.359Z,65.60
2017-12-09T03:31:25.966Z,65.50
2017-12-09T03:33:53.592Z,65.20
2017-12-09T03:36:22.011Z,63.60
2017-12-09T03:38:49.671Z,63.60
2017-12-09T03:41:17.341Z,64.10
2017-12-09T03:43:44.994Z,63.20
2017-12-09T03:46:12.650Z,62.50
2017-12-09T03:48:41.060Z,61.00
2017-12-09T03:51:08.866Z,61.00
2017-12-09T03:53:37.241Z,59.30
2017-12-09T03:56:04.901Z,59.30
2017-12-09T03:58:32.532Z,57.20
2017-12-09T04:01:00.179Z,56.50
2017-12-09T04:03:28.754Z,56.20
2017-12-09T04:05:56.384Z,56.30
2017-12-09T04:08:24.821Z,53.60
2017-12-09T04:10:52.487Z,53.50
2017-12-09T04:13:20.140Z,53.40
2017-12-09T04:15:48.711Z,53.40
2017-12-09T04:18:17.147Z,51.30
2017-12-09T04:20:44.814Z,51.20
2017-12-09T04:23:12.495Z,52.30
2017-12-09T04:25:40.129Z,52.20
2017-12-09T04:28:07.911Z,51.20
2017-12-09T04:30:35.552Z,51.80
2017-12-09T04:33:03.242Z,52.60
2017-12-09T04:35:30.895Z,51.30
2017-12-09T04:37:58.729Z,51.10
2017-12-09T04:40:26.350Z,51.70
2017-12-09T04:42:54.007Z,52.90
2017-12-09T04:45:21.619Z,53.00
2017-12-09T04:47:49.462Z,54.50
2017-12-09T04:50:17.091Z,55.20
2017-12-09T04:52:44.710Z,58.00
2017-12-09T04:55:12.362Z,60.20
2017-12-09T04:57:39.984Z,67.00
2017-12-09T05:00:07.795Z,74.70
2017-12-09T05:02:35.473Z,76.60
2017-12-09T05:05:03.369Z,78.50
2017-12-09T05:07:31.002Z,78.60
2017-12-09T05:09:58.879Z,78.70
2017-12-09T05:12:26.557Z,78.50
2017-12-09T05:14:54.204Z,78.80
2017-12-09T05:17:21.840Z,79.20
2017-12-09T05:19:49.522Z,79.00
2017-12-09T05:22:17.133Z,78.00
2017-12-09T05:24:44.828Z,77.80
2017-12-09T05:27:12.494Z,78.30
2017-12-09T05:29:40.224Z,77.90
2017-12-09T05:32:07.934Z,78.40
2017-12-09T05:34:35.551Z,78.40
2017-12-09T05:37:04.000Z,79.80
2017-12-09T05:39:31.642Z,79.70
2017-12-09T05:41:59.375Z,80.80
2017-12-09T05:44:27.038Z,80.60
2017-12-09T05:46:54.680Z,81.20
2017-12-09T05:49:22.343Z,81.60
2017-12-09T05:51:50.767Z,82.50
2017-12-09T05:54:18.573Z,82.40
2017-12-09T05:56:46.251Z,81.90
2017-12-09T05:59:13.876Z,81.90
2017-12-09T06:01:41.529Z,81.50
2017-12-09T06:04:09.277Z,81.00
2017-12-09T06:06:36.900Z,82.00
2017-12-09T06:09:04.542Z,81.40
2017-12-09T06:11:32.159Z,81.80
2017-12-09T06:13:59.850Z,81.10
2017-12-09T06:16:28.367Z,80.80
2017-12-09T06:18:55.982Z,80.80
2017-12-09T06:21:23.630Z,80.40
2017-12-09T06:23:51.246Z,80.50
2017-12-09T06:26:19.661Z,83.60
2017-12-09T06:28:47.306Z,82.80
2017-12-09T06:31:14.953Z,84.10
2017-12-09T06:33:42.629Z,84.50
2017-12-09T06:36:10.285Z,84.60
2017-12-09T06:38:37.964Z,83.90
2017-12-09T06:41:05.608Z,85.20
2017-12-09T06:43:33.990Z,84.90
2017-12-09T06:46:01.642Z,84.90
2017-12-09T06:48:29.453Z,84.60
2017-12-09T06:50:57.102Z,84.20
2017-12-09T06:53:25.255Z,83.70
2017-12-09T06:55:52.901Z,83.70
2017-12-09T06:58:20.562Z,83.70
2017-12-09T07:00:48.394Z,83.40
2017-12-09T07:03:16.496Z,83.40
2017-12-09T07:05:44.107Z,83.00
2017-12-09T07:08:11.726Z,83.00
2017-12-09T07:10:39.466Z,82.30
2017-12-09T07:13:07.264Z,81.90
2017-12-09T07:15:35.957Z,82.00
2017-12-09T07:18:03.904Z,81.90
2017-12-09T07:20:32.073Z,82.00
2017-12-09T07:23:00.498Z,82.30
2017-12-09T07:25:28.205Z,82.20
2017-12-09T07:27:55.987Z,81.50
2017-12-09T07:30:23.603Z,81.30
2017-12-09T07:32:51.221Z,81.30
2017-12-09T07:35:20.401Z,80.80
2017-12-09T07:37:48.035Z,80.70
2017-12-09T07:40:16.670Z,80.20
2017-12-09T07:42:44.333Z,80.20
2017-12-09T07:45:13.179Z,79.80
2017-12-09T07:47:40.977Z,78.80
2017-12-09T07:50:09.445Z,77.80
2017-12-09T07:52:37.107Z,77.80
2017-12-09T07:55:04.736Z,76.40
2017-12-09T07:57:33.185Z,75.80
2017-12-09T08:00:03.757Z,75.70
2017-12-09T08:02:31.459Z,75.70
2017-12-09T08:04:59.975Z,74.40
2017-12-09T08:07:27.649Z,74.50
2017-12-09T08:09:55.467Z,73.10
2017-12-09T08:12:23.128Z,74.50
2017-12-09T08:14:50.755Z,73.50
2017-12-09T08:17:18.482Z,72.80
2017-12-09T08:19:46.866Z,71.50
2017-12-09T08:22:14.505Z,71.50
2017-12-09T08:24:42.150Z,69.90
2017-12-09T08:27:11.211Z,69.20
2017-12-09T08:29:38.923Z,68.10
2017-12-09T08:32:06.614Z,67.60
2017-12-09T08:34:34.230Z,66.40
2017-12-09T08:37:01.884Z,65.00
2017-12-09T08:39:29.649Z,65.40
2017-12-09T08:41:57.298Z,61.60
2017-12-09T08:44:25.457Z,61.40
2017-12-09T08:46:53.180Z,59.30
2017-12-09T08:49:20.845Z,58.30
2017-12-09T08:51:50.182Z,58.00
2017-12-09T08:54:17.886Z,58.00
2017-12-09T08:56:46.300Z,53.30
2017-12-09T08:59:13.935Z,53.30
2017-12-09T09:01:41.580Z,52.90
2017-12-09T09:04:09.420Z,50.30
2017-12-09T09:06:37.128Z,49.10
2017-12-09T09:09:06.512Z,48.80
2017-12-09T09:11:34.173Z,53.00
2017-12-09T09:14:02.941Z,50.90
2017-12-09T09:16:31.349Z,49.40
2017-12-09T09:18:59.064Z,49.40
2017-12-09T09:21:27.475Z,49.80
2017-12-09T09:23:55.257Z,49.80
2017-12-09T09:26:22.899Z,51.60
2017-12-09T09:28:50.552Z,51.60
2017-12-09T09:31:18.413Z,52.00
2017-12-09T09:33:46.814Z,50.20
2017-12-09T09:36:14.449Z,50.90
2017-12-09T09:38:43.975Z,52.90
2017-12-09T09:41:12.119Z,51.40
2017-12-09T09:43:40.926Z,51.10
2017-12-09T09:46:08.938Z,50.60
2017-12-09T09:48:36.642Z,50.00
2017-12-09T09:51:04.344Z,48.10
2017-12-09T09:53:32.066Z,45.70
2017-12-09T09:56:01.010Z,43.90
2017-12-09T09:58:28.953Z,43.70
2017-12-09T10:00:56.591Z,47.40
2017-12-09T10:03:24.246Z,47.90
2017-12-09T10:05:52.577Z,58.80
2017-12-09T10:08:20.247Z,66.40
2017-12-09T10:10:47.893Z,72.50
2017-12-09T10:13:15.537Z,77.80
2017-12-09T10:15:43.602Z,81.70
2017-12-09T10:18:13.420Z,84.20
2017-12-09T10:20:41.542Z,83.10
2017-12-09T10:23:10.434Z,81.60
2017-12-09T10:25:39.228Z,79.70
2017-12-09T10:28:08.408Z,78.10
2017-12-09T10:30:37.442Z,75.70
2017-12-09T10:33:05.095Z,72.60
2017-12-09T10:35:34.110Z,72.40
2017-12-09T10:38:01.740Z,71.80
2017-12-09T10:40:30.062Z,70.50
2017-12-09T10:42:57.773Z,70.30
2017-12-09T10:45:25.473Z,71.00
2017-12-09T10:47:53.091Z,71.40
2017-12-09T10:50:21.862Z,72.20
2017-12-09T10:52:50.283Z,74.30
2017-12-09T10:55:17.934Z,74.40
2017-12-09T10:57:45.602Z,77.00
2017-12-09T11:00:13.993Z,80.50
2017-12-09T11:02:41.629Z,80.40
2017-12-09T11:05:10.074Z,82.40
2017-12-09T11:07:37.923Z,82.40
2017-12-09T11:10:05.579Z,83.00
2017-12-09T11:12:33.985Z,83.00
2017-12-09T11:15:01.617Z,83.10
2017-12-09T11:17:29.520Z,82.40
2017-12-09T11:19:57.130Z,81.40
2017-12-09T11:22:24.758Z,80.50
2017-12-09T11:24:52.410Z,80.10
2017-12-09T11:27:20.044Z,79.70
2017-12-09T11:29:47.705Z,79.80
2017-12-09T11:32:15.486Z,79.00
2017-12-09T11:34:43.097Z,79.50
2017-12-09T11:37:10.765Z,78.80
2017-12-09T11:39:38.443Z,78.90
2017-12-09T11:42:06.540Z,78.00
2017-12-09T11:44:34.188Z,80.30
2017-12-09T11:47:01.923Z,80.00
2017-12-09T11:49:30.342Z,82.20
2017-12-09T11:51:57.964Z,82.20
2017-12-09T11:54:25.573Z,82.60
2017-12-09T11:56:53.235Z,83.40
2017-12-09T11:59:20.875Z,82.90
2017-12-09T12:01:48.715Z,83.10
2017-12-09T12:04:17.113Z,82.70
2017-12-09T12:06:44.846Z,82.80
2017-12-09T12:09:12.507Z,82.40
2017-12-09T12:11:41.464Z,83.40
2017-12-09T12:14:10.661Z,82.50
2017-12-09T12:16:38.319Z,82.30
2017-12-09T12:19:06.246Z,82.00
2017-12-09T12:21:34.487Z,81.90
2017-12-09T12:24:02.110Z,81.20
2017-12-09T12:26:29.759Z,80.10
2017-12-09T12:28:57.378Z,78.60
2017-12-09T12:31:24.996Z,76.80
2017-12-09T12:33:53.432Z,77.70
2017-12-09T12:36:21.051Z,77.60
2017-12-09T12:38:48.831Z,78.50
2017-12-09T12:41:17.242Z,79.60
2017-12-09T12:43:44.863Z,79.60
2017-12-09T12:46:13.273Z,81.70
2017-12-09T12:48:41.035Z,81.80
2017-12-09T12:51:10.487Z,83.60
2017-12-09T12:53:38.474Z,84.40
2017-12-09T12:56:07.285Z,85.50
2017-12-09T12:58:35.036Z,85.60
2017-12-09T13:01:02.702Z,86.40
2017-12-09T13:03:30.887Z,87.80
2017-12-09T13:06:00.589Z,88.30
2017-12-09T13:08:28.286Z,89.10
2017-12-09T13:10:56.875Z,87.90
2017-12-09T13:13:24.984Z,88.60
2017-12-09T13:15:52.629Z,88.30
2017-12-09T13:18:20.324Z,89.30
2017-12-09T13:20:48.045Z,87.60
2017-12-09T13:23:15.656Z,87.10
2017-12-09T13:25:43.310Z,86.30
2017-12-09T13:28:10.985Z,87.90
2017-12-09T13:30:38.679Z,87.30
2017-12-09T13:33:06.358Z,87.80
2017-12-09T13:35:34.104Z,87.70
2017-12-09T13:38:01.718Z,86.50
2017-12-09T13:40:29.398Z,86.30
2017-12-09T13:42:57.014Z,83.70
2017-12-09T13:45:24.682Z,81.70
2017-12-09T13:47:52.317Z,82.50
2017-12-09T13:50:19.953Z,82.30
2017-12-09T13:52:47.601Z,81.20
2017-12-09T13:55:15.215Z,81.30
2017-12-09T13:57:42.838Z,79.10
2017-12-09T14:00:10.506Z,81.70
2017-12-09T14:02:38.174Z,81.80
2017-12-09T14:05:05.858Z,80.60
2017-12-09T14:07:33.499Z,79.70
2017-12-09T14:10:01.121Z,80.40
2017-12-09T14:12:28.803Z,80.20
2017-12-09T14:14:56.414Z,80.20
2017-12-09T14:17:26.004Z,79.40
2017-12-09T14:19:53.684Z,80.80
2017-12-09T14:22:22.724Z,79.90
2017-12-09T14:24:50.374Z,77.60
2017-12-09T14:27:18.044Z,77.70
2017-12-09T14:29:45.686Z,76.80
2017-12-09T14:32:13.330Z,76.80
2017-12-09T14:34:40.963Z,78.40
2017-12-09T14:37:08.775Z,76.80
2017-12-09T14:39:36.392Z,76.10
2017-12-09T14:42:04.306Z,76.10
2017-12-09T14:44:31.967Z,75.70
2017-12-09T14:46:59.774Z,75.40
2017-12-09T14:49:27.494Z,75.10
2017-12-09T14:51:55.504Z,74.90
2017-12-09T14:54:23.172Z,74.30
2017-12-09T14:56:50.825Z,74.90
2017-12-09T14:59:18.558Z,75.20
2017-12-09T15:01:46.211Z,73.30
2017-12-09T15:04:13.854Z,74.80
2017-12-09T15:06:41.510Z,74.00
2017-12-09T15:09:09.281Z,72.90
2017-12-09T15:11:37.015Z,72.40
2017-12-09T15:14:04.754Z,73.20
2017-12-09T15:16:32.362Z,71.90
2017-12-09T15:19:00.016Z,72.20
2017-12-09T15:21:28.427Z,72.80
2017-12-09T15:23:56.046Z,72.80
2017-12-09T15:26:23.720Z,72.10
2017-12-09T15:28:51.338Z,72.40
2017-12-09T15:31:18.993Z,72.20
2017-12-09T15:33:46.686Z,71.60
2017-12-09T15:36:14.304Z,71.70
2017-12-09T15:38:42.042Z,71.60
2017-12-09T15:41:09.755Z,70.90
2017-12-09T15:43:37.470Z,70.00
2017-12-09T15:46:05.241Z,70.40
2017-12-09T15:48:32.911Z,70.60
2017-12-09T15:51:01.346Z,70.20
2017-12-09T15:53:28.954Z,70.10
2017-12-09T15:55:56.598Z,69.10
2017-12-09T15:58:24.218Z,70.30
2017-12-09T16:00:51.911Z,69.30
2017-12-09T16:03:19.697Z,69.10
2017-12-09T16:05:47.343Z,69.90
2017-12-09T16:08:15.018Z,71.10
2017-12-09T16:10:42.637Z,70.60
2017-12-09T16:13:10.358Z,68.80
2017-12-09T16:15:38.038Z,69.30
2017-12-09T16:18:05.801Z,68.60
2017-12-09T16:20:33.438Z,69.00
2017-12-09T16:23:01.090Z,68.20
2017-12-09T16:25:29.745Z,68.30
2017-12-09T16:27:57.408Z,68.30
2017-12-09T16:30:25.800Z,68.10
2017-12-09T16:32:53.446Z,68.10
2017-12-09T16:35:21.118Z,70.80
2017-12-09T16:37:48.755Z,70.30
2017-12-09T16:40:16.540Z,69.60
2017-12-09T16:42:44.158Z,68.20
2017-12-09T16:45:11.806Z,69.00
2017-12-09T16:47:39.448Z,67.50
2017-12-09T16:50:07.076Z,67.60
2017-12-09T16:52:34.721Z,69.10
2017-12-09T16:55:02.371Z,68.40
2017-12-09T16:57:30.094Z,66.90
2017-12-09T16:59:58.520Z,67.20
2017-12-09T17:02:26.164Z,67.20
2017-12-09T17:04:53.810Z,66.30
2017-12-09T17:07:21.468Z,67.10
2017-12-09T17:09:49.150Z,67.20
2017-12-09T17:12:16.762Z,65.70
2017-12-09T17:14:44.378Z,66.80
2017-12-09T17:17:12.082Z,66.80
2017-12-09T17:19:40.490Z,66.40
2017-12-09T17:22:08.360Z,66.30
2017-12-09T17:24:35.998Z,66.50
2017-12-09T17:27:03.666Z,66.40
2017-12-09T17:29:31.329Z,65.70
2017-12-09T17:31:59.841Z,65.40
2017-12-09T17:34:27.913Z,65.40
2017-12-09T17:36:55.574Z,63.80
2017-12-09T17:39:23.213Z,64.50
2017-12-09T17:41:50.926Z,64.50
2017-12-09T17:44:18.590Z,63.30
2017-12-09T17:46:46.247Z,64.50
2017-12-09T17:49:13.926Z,64.50
2017-12-09T17:51:41.549Z,63.80
2017-12-09T17:54:09.277Z,65.50
2017-12-09T17:56:36.894Z,63.40
2017-12-09T17:59:04.581Z,63.90
2017-12-09T18:01:32.206Z,63.80
2017-12-09T18:03:59.820Z,64.60
2017-12-09T18:06:28.280Z,62.90
2017-12-09T18:08:56.672Z,63.60
2017-12-09T18:11:24.335Z,63.50
2017-12-09T18:13:51.988Z,64.90
2017-12-09T18:16:19.786Z,63.40
2017-12-09T18:18:48.248Z,63.50
2017-12-09T18:21:15.874Z,63.40
2017-12-09T18:23:43.616Z,64.60
2017-12-09T18:26:11.257Z,63.90
2017-12-09T18:28:38.893Z,64.50
2017-12-09T18:31:06.581Z,63.40
2017-12-09T18:33:35.087Z,63.30
2017-12-09T18:36:02.746Z,63.20
2017-12-09T18:38:30.365Z,63.20
2017-12-09T18:40:58.746Z,62.90
2017-12-09T18:43:26.716Z,63.00
2017-12-09T18:45:55.220Z,64.30
2017-12-09T18:48:22.874Z,64.30
2017-12-09T18:50:51.270Z,63.70
2017-12-09T18:53:18.907Z,63.60
2017-12-09T18:55:46.638Z,65.10
2017-12-09T18:58:15.045Z,64.70
2017-12-09T19:00:42.757Z,64.60
2017-12-09T19:03:11.155Z,65.20
2017-12-09T19:05:38.788Z,65.20
2017-12-09T19:08:06.426Z,65.40
2017-12-09T19:10:34.079Z,64.70
2017-12-09T19:13:01.722Z,64.80
2017-12-09T19:15:29.452Z,65.50
2017-12-09T19:17:57.157Z,67.50
2017-12-09T19:20:24.834Z,64.90
2017-12-09T19:22:52.480Z,65.80
2017-12-09T19:25:20.146Z,66.20
2017-12-09T19:27:47.784Z,66.60
2017-12-09T19:30:15.450Z,65.40
2017-12-09T19:32:43.070Z,65.70
2017-12-09T19:35:10.683Z,66.30
2017-12-09T19:37:38.341Z,65.70
2017-12-09T19:40:06.010Z,65.40
2017-12-09T19:42:33.838Z,65.40
2017-12-09T19:45:01.471Z,65.60
2017-12-09T19:47:29.222Z,67.20
2017-12-09T19:49:56.878Z,65.90
2017-12-09T19:52:24.521Z,66.00
2017-12-09T19:54:52.163Z,65.20
2017-12-09T19:57:19.793Z,65.50
2017-12-09T19:59:47.410Z,65.00
2017-12-09T20:02:15.054Z,64.90
2017-12-09T20:04:42.673Z,65.10
2017-12-09T20:07:10.330Z,65.60
2017-12-09T20:09:38.775Z,65.30
2017-12-09T20:12:06.397Z,65.20
2017-12-09T20:14:34.052Z,65.40
2017-12-09T20:17:01.701Z,65.40
2017-12-09T20:19:29.402Z,65.50
2017-12-09T20:21:57.789Z,66.20
2017-12-09T20:24:25.413Z,66.10
2017-12-09T20:26:53.838Z,65.30
2017-12-09T20:29:21.453Z,65.30
2017-12-09T20:31:49.151Z,65.00
2017-12-09T20:34:16.774Z,66.00
2017-12-09T20:36:44.447Z,66.90
2017-12-09T20:39:13.002Z,67.80
2017-12-09T20:41:40.610Z,67.80
2017-12-09T20:44:08.317Z,68.90
2017-12-09T20:46:36.725Z,71.40
2017-12-09T20:49:04.341Z,71.30
2017-12-09T20:51:32.023Z,72.70
2017-12-09T20:53:59.750Z,72.90
2017-12-09T20:56:29.386Z,72.60
2017-12-09T20:58:57.003Z,73.60
2017-12-09T21:01:24.617Z,73.20
2017-12-09T21:03:53.044Z,73.60
2017-12-09T21:06:20.693Z,73.60
2017-12-09T21:08:48.388Z,73.80
2017-12-09T21:11:16.146Z,73.40
2017-12-09T21:13:43.757Z,72.50
2017-12-09T21:16:12.185Z,72.30
2017-12-09T21:18:39.816Z,72.20
2017-12-09T21:21:12.894Z,72.90
2017-12-09T21:23:41.242Z,70.60
2017-12-09T21:26:08.890Z,69.70
2017-12-09T21:28:36.733Z,69.80
2017-12-09T21:31:04.408Z,69.40
2017-12-09T21:33:37.923Z,69.60
2017-12-09T21:36:05.561Z,69.30
2017-12-09T21:38:33.178Z,69.30
2017-12-09T21:41:00.830Z,68.30
2017-12-09T21:43:28.566Z,68.60
2017-12-09T21:46:01.965Z,67.00
2017-12-09T21:48:29.683Z,67.00
2017-12-09T21:50:57.305Z,68.00
2017-12-09T21:53:25.728Z,66.40
2017-12-09T21:55:53.367Z,66.40
2017-12-09T21:58:26.499Z,66.80
2017-12-09T22:00:54.118Z,66.40
2017-12-09T22:03:21.760Z,66.50
2017-12-09T22:05:49.496Z,66.30
2017-12-09T22:08:17.120Z,67.00
2017-12-09T22:10:50.457Z,65.90
2017-12-09T22:13:18.826Z,66.30
2017-12-09T22:15:46.470Z,66.30
2017-12-09T22:18:14.860Z,67.10
2017-12-09T22:20:44.597Z,66.40
2017-12-09T22:23:14.021Z,64.80
2017-12-09T22:25:41.639Z,64.80
2017-12-09T22:28:09.406Z,66.60
2017-12-09T22:30:37.047Z,64.30
2017-12-09T22:33:05.496Z,64.30
2017-12-09T22:35:38.337Z,64.30
2017-12-09T22:38:05.950Z,65.40
2017-12-09T22:40:33.590Z,64.50
2017-12-09T22:43:01.970Z,65.20
2017-12-09T22:45:29.683Z,65.20
2017-12-09T22:48:02.577Z,64.50
2017-12-09T22:50:30.185Z,64.50
2017-12-09T22:52:57.885Z,64.70
2017-12-09T22:55:25.605Z,64.40
2017-12-09T22:57:53.295Z,64.70
2017-12-09T23:00:24.013Z,63.70
2017-12-09T23:02:51.812Z,63.90
2017-12-09T23:05:20.562Z,62.50
2017-12-09T23:07:48.448Z,62.50
2017-12-09T23:10:16.258Z,62.70
2017-12-09T23:12:44.121Z,62.60
2017-12-09T23:15:11.802Z,62.50
2017-12-09T23:17:39.577Z,62.60
2017-12-09T23:20:07.337Z,61.90
2017-12-09T23:22:35.014Z,62.00
2017-12-09T23:25:02.713Z,62.20
2017-12-09T23:27:30.317Z,62.30
2017-12-09T23:29:58.924Z,61.70
2017-12-09T23:32:26.633Z,61.70
2017-12-09T23:34:54.297Z,62.00
2017-12-09T23:37:22.020Z,63.00
2017-12-09T23:39:49.800Z,62.40
2017-12-09T23:42:17.612Z,61.40
2017-12-09T23:44:46.162Z,60.00
2017-12-09T23:47:13.915Z,60.00
2017-12-09T23:49:41.649Z,59.50
2017-12-09T23:52:09.543Z,60.80
2017-12-09T23:54:38.271Z,59.90
2017-12-09T23:57:05.918Z,59.90
2017-12-09T23:59:33.621Z,60.00
